createdAt,value
2023-03-26T00:01:58.419Z,8.90
2023-03-26T00:04:26.445Z,8.80
2023-03-26T00:06:54.477Z,8.80
2023-03-26T00:09:23.878Z,8.90
2023-03-26T00:11:52.046Z,9.00
2023-03-26T00:14:19.984Z,9.00
2023-03-26T00:16:49.401Z,8.90
2023-03-26T00:19:17.523Z,8.80
2023-03-26T00:21:45.544Z,8.70
2023-03-26T00:24:16.182Z,8.60
2023-03-26T00:26:53.081Z,8.60
2023-03-26T00:29:22.930Z,8.60
2023-03-26T00:31:51.482Z,8.60
2023-03-26T00:34:19.521Z,8.60
2023-03-26T00:36:47.867Z,8.50
2023-03-26T00:39:17.784Z,8.40
2023-03-26T00:41:47.279Z,8.30
2023-03-26T00:44:15.444Z,8.40
2023-03-26T00:46:43.434Z,8.50
2023-03-26T00:49:14.657Z,8.50
2023-03-26T00:51:43.034Z,8.50
2023-03-26T00:54:12.016Z,8.50
2023-03-26T00:56:40.341Z,8.50
2023-03-26T00:59:10.248Z,8.60
2023-03-26T01:01:38.497Z,8.60
2023-03-26T01:04:27.219Z,8.60
2023-03-26T01:06:56.400Z,8.60
2023-03-26T01:09:32.911Z,8.70
2023-03-26T01:12:02.407Z,8.70
2023-03-26T01:14:32.144Z,8.80
2023-03-26T01:17:02.247Z,8.70
2023-03-26T01:19:38.159Z,8.70
2023-03-26T01:22:09.711Z,8.80
2023-03-26T01:24:39.312Z,8.70
2023-03-26T01:27:26.012Z,8.70
2023-03-26T01:29:56.710Z,8.70
2023-03-26T01:32:52.495Z,8.70
2023-03-26T01:35:39.475Z,8.80
2023-03-26T01:38:14.325Z,8.80
2023-03-26T01:40:49.449Z,9.00
2023-03-26T01:43:30.033Z,9.00
2023-03-26T01:46:01.160Z,9.00
2023-03-26T01:48:36.370Z,9.00
2023-03-26T01:51:05.475Z,9.10
2023-03-26T01:53:35.378Z,9.10
2023-03-26T01:56:13.730Z,9.20
2023-03-26T01:58:53.975Z,9.20
2023-03-26T02:01:30.096Z,9.20
2023-03-26T02:04:03.469Z,9.20
2023-03-26T02:06:40.661Z,9.30
2023-03-26T02:09:12.473Z,9.30
2023-03-26T02:11:42.496Z,9.30
2023-03-26T02:14:11.070Z,9.40
2023-03-26T02:16:39.389Z,9.40
2023-03-26T02:19:15.732Z,9.40
2023-03-26T02:21:45.871Z,9.40
2023-03-26T02:24:14.138Z,9.50
2023-03-26T02:26:43.610Z,9.50
2023-03-26T02:29:13.286Z,9.50
2023-03-26T02:31:44.413Z,9.60
2023-03-26T02:34:12.630Z,9.50
2023-03-26T02:36:47.086Z,9.50
2023-03-26T02:39:15.310Z,9.40
2023-03-26T02:41:51.676Z,9.40
2023-03-26T02:44:19.745Z,9.40
2023-03-26T02:46:59.480Z,9.50
2023-03-26T02:49:46.220Z,9.50
2023-03-26T02:52:20.701Z,9.60
2023-03-26T02:54:50.652Z,9.50
2023-03-26T02:57:22.625Z,9.50
2023-03-26T02:59:59.298Z,9.50
2023-03-26T03:02:39.815Z,9.50
2023-03-26T03:05:28.717Z,9.50
2023-03-26T03:08:09.693Z,9.50
2023-03-26T03:10:42.423Z,9.50
2023-03-26T03:13:18.615Z,9.60
2023-03-26T03:15:47.103Z,9.60
2023-03-26T03:18:15.257Z,9.60
2023-03-26T03:20:43.636Z,9.60
2023-03-26T03:23:11.924Z,9.60
2023-03-26T03:25:41.053Z,9.60
2023-03-26T03:28:09.215Z,9.60
2023-03-26T03:30:39.018Z,9.60
2023-03-26T03:33:15.905Z,9.60
2023-03-26T03:35:45.859Z,9.70
2023-03-26T03:38:14.134Z,9.60
2023-03-26T03:40:48.614Z,9.60
2023-03-26T03:43:17.654Z,9.70
2023-03-26T03:46:19.318Z,9.70
2023-03-26T03:48:49.915Z,9.70
2023-03-26T03:51:26.533Z,9.60
2023-03-26T03:53:57.868Z,9.50
2023-03-26T03:56:45.704Z,9.50
2023-03-26T03:59:32.167Z,9.50
2023-03-26T04:02:02.660Z,9.50
2023-03-26T04:04:46.372Z,9.50
2023-03-26T04:07:17.158Z,9.40
2023-03-26T04:10:04.132Z,9.40
2023-03-26T04:12:52.429Z,9.40
2023-03-26T04:15:25.368Z,9.30
2023-03-26T04:17:54.745Z,9.30
2023-03-26T04:20:23.246Z,9.30
2023-03-26T04:22:52.912Z,9.20
2023-03-26T04:25:22.494Z,9.30
2023-03-26T04:27:58.495Z,9.30
2023-03-26T04:30:54.730Z,9.30
2023-03-26T04:33:40.871Z,9.40
2023-03-26T04:36:11.550Z,9.40
2023-03-26T04:38:42.848Z,9.40
2023-03-26T04:41:13.586Z,9.40
2023-03-26T04:43:51.409Z,9.40
2023-03-26T04:46:35.099Z,9.30
2023-03-26T04:49:30.754Z,9.40
2023-03-26T04:51:59.205Z,9.20
2023-03-26T04:54:59.480Z,9.20
2023-03-26T04:57:33.786Z,9.20
2023-03-26T05:00:16.606Z,9.30
2023-03-26T05:02:50.132Z,9.30
2023-03-26T05:05:20.857Z,9.40
2023-03-26T05:07:49.759Z,9.40
2023-03-26T05:10:21.312Z,9.50
2023-03-26T05:12:53.580Z,9.40
2023-03-26T05:15:26.259Z,9.40
2023-03-26T05:18:08.781Z,9.40
2023-03-26T05:20:44.419Z,9.50
2023-03-26T05:23:12.900Z,9.50
2023-03-26T05:25:47.199Z,9.60
2023-03-26T05:28:24.711Z,9.60
2023-03-26T05:31:08.526Z,9.60
2023-03-26T05:33:40.020Z,9.60
2023-03-26T05:36:16.294Z,9.60
2023-03-26T05:38:49.611Z,9.60
2023-03-26T05:41:40.836Z,9.60
2023-03-26T05:44:08.772Z,9.60
2023-03-26T05:46:37.000Z,9.60
2023-03-26T05:49:05.250Z,9.70
2023-03-26T05:51:37.395Z,9.70
2023-03-26T05:54:40.739Z,9.70
2023-03-26T05:57:41.935Z,9.70
2023-03-26T06:00:38.376Z,9.70
2023-03-26T06:03:12.363Z,9.80
2023-03-26T06:06:03.824Z,9.80
2023-03-26T06:09:01.578Z,9.80
2023-03-26T06:11:31.311Z,9.80
2023-03-26T06:13:59.467Z,9.80
2023-03-26T06:16:28.389Z,9.80
2023-03-26T06:19:19.837Z,9.80
2023-03-26T06:22:00.650Z,9.80
2023-03-26T06:24:37.874Z,9.80
2023-03-26T06:27:06.329Z,9.80
2023-03-26T06:29:34.323Z,9.80
2023-03-26T06:32:19.168Z,9.80
2023-03-26T06:35:07.276Z,9.80
2023-03-26T06:37:35.449Z,9.80
2023-03-26T06:40:06.098Z,9.80
2023-03-26T06:43:07.122Z,9.80
2023-03-26T06:45:57.024Z,9.80
2023-03-26T06:48:40.475Z,9.70
2023-03-26T06:51:41.179Z,9.70
2023-03-26T06:54:09.263Z,9.80
2023-03-26T06:56:47.570Z,9.80
2023-03-26T06:59:31.024Z,9.80
2023-03-26T07:02:17.495Z,9.90
2023-03-26T07:05:04.242Z,9.90
2023-03-26T07:07:50.747Z,10.00
2023-03-26T07:10:37.123Z,9.90
2023-03-26T07:13:26.476Z,10.00
2023-03-26T07:16:20.573Z,9.90
2023-03-26T07:19:07.444Z,10.00
2023-03-26T07:21:38.787Z,10.00
2023-03-26T07:24:22.520Z,10.10
2023-03-26T07:27:18.445Z,10.10
2023-03-26T07:29:53.342Z,10.10
2023-03-26T07:32:47.198Z,10.20
2023-03-26T07:35:35.801Z,10.20
2023-03-26T07:38:34.150Z,10.20
2023-03-26T07:41:36.453Z,10.30
2023-03-26T07:44:38.779Z,10.30
2023-03-26T07:47:30.050Z,10.30
2023-03-26T07:50:27.644Z,10.30
2023-03-26T07:53:03.990Z,10.30
2023-03-26T07:55:48.049Z,10.40
2023-03-26T07:58:55.786Z,10.40
2023-03-26T08:02:05.332Z,10.50
2023-03-26T08:04:58.409Z,10.50
2023-03-26T08:08:06.954Z,10.50
2023-03-26T08:10:52.801Z,10.50
2023-03-26T08:13:28.108Z,10.50
2023-03-26T08:16:05.689Z,10.50
2023-03-26T08:18:44.822Z,10.50
2023-03-26T08:21:18.742Z,10.50
2023-03-26T08:23:59.021Z,10.50
2023-03-26T08:26:33.139Z,10.50
2023-03-26T08:29:12.274Z,10.50
2023-03-26T08:31:42.308Z,10.50
2023-03-26T08:34:12.474Z,10.60
2023-03-26T08:36:42.234Z,10.60
2023-03-26T08:39:10.330Z,10.50
2023-03-26T08:42:20.322Z,10.50
2023-03-26T08:45:23.868Z,10.60
2023-03-26T08:48:23.416Z,10.60
2023-03-26T08:51:25.103Z,10.70
2023-03-26T08:54:34.738Z,10.70
2023-03-26T08:57:39.088Z,10.70
2023-03-26T09:00:33.917Z,10.70
2023-03-26T09:03:59.469Z,10.70
2023-03-26T09:07:06.852Z,10.70
2023-03-26T09:10:02.099Z,10.70
2023-03-26T09:13:07.450Z,10.70
2023-03-26T09:16:06.435Z,10.70
2023-03-26T09:19:03.893Z,10.70
2023-03-26T09:22:00.399Z,10.60
2023-03-26T09:24:43.130Z,10.70
2023-03-26T09:27:33.918Z,10.70
2023-03-26T09:30:41.670Z,10.70
2023-03-26T09:33:48.675Z,10.70
2023-03-26T09:36:37.349Z,10.60
2023-03-26T09:39:11.191Z,10.60
2023-03-26T09:41:44.111Z,10.50
2023-03-26T09:44:49.585Z,10.50
2023-03-26T09:47:52.134Z,10.40
2023-03-26T09:50:38.157Z,10.40
2023-03-26T09:53:23.775Z,10.40
2023-03-26T09:56:09.981Z,10.40
2023-03-26T09:58:49.669Z,10.30
2023-03-26T10:01:26.185Z,10.30
2023-03-26T10:04:02.570Z,10.30
2023-03-26T10:06:39.608Z,10.30
2023-03-26T10:09:23.348Z,10.30
2023-03-26T10:12:06.901Z,10.30
2023-03-26T10:14:40.839Z,10.30
2023-03-26T10:17:32.016Z,10.30
2023-03-26T10:20:13.039Z,10.30
2023-03-26T10:22:56.774Z,10.30
2023-03-26T10:25:44.141Z,10.30
2023-03-26T10:28:26.280Z,10.30
2023-03-26T10:31:19.349Z,10.30
2023-03-26T10:34:01.377Z,10.30
2023-03-26T10:36:34.031Z,10.40
2023-03-26T10:39:38.360Z,10.40
2023-03-26T10:42:33.967Z,10.40
2023-03-26T10:45:18.922Z,10.30
2023-03-26T10:48:20.435Z,10.30
2023-03-26T10:51:08.011Z,10.30
2023-03-26T10:53:39.935Z,10.40
2023-03-26T10:56:16.167Z,10.40
2023-03-26T10:58:48.804Z,10.50
2023-03-26T11:01:28.972Z,10.50
2023-03-26T11:03:59.910Z,10.60
2023-03-26T11:06:41.270Z,10.60
2023-03-26T11:09:24.993Z,10.60
2023-03-26T11:12:03.111Z,10.70
2023-03-26T11:14:57.750Z,10.70
2023-03-26T11:17:41.586Z,10.80
2023-03-26T11:20:17.668Z,10.80
2023-03-26T11:23:00.344Z,10.70
2023-03-26T11:25:40.002Z,10.70
2023-03-26T11:28:23.709Z,10.70
2023-03-26T11:30:56.718Z,10.70
2023-03-26T11:33:32.577Z,10.70
2023-03-26T11:36:06.425Z,10.70
2023-03-26T11:38:39.079Z,10.70
2023-03-26T11:41:14.163Z,10.70
2023-03-26T11:43:58.661Z,10.70
2023-03-26T11:46:33.630Z,10.70
2023-03-26T11:49:09.118Z,10.70
2023-03-26T11:51:38.460Z,10.70
2023-03-26T11:54:11.205Z,10.70
2023-03-26T11:57:05.668Z,10.70
2023-03-26T11:59:49.054Z,10.80
2023-03-26T12:02:29.879Z,10.80
2023-03-26T12:05:14.750Z,10.80
2023-03-26T12:07:51.193Z,10.80
2023-03-26T12:10:26.891Z,10.90
2023-03-26T12:12:57.694Z,10.90
2023-03-26T12:15:26.627Z,10.90
2023-03-26T12:17:56.999Z,10.90
2023-03-26T12:20:38.644Z,10.90
2023-03-26T12:23:08.202Z,11.00
2023-03-26T12:25:40.134Z,11.00
2023-03-26T12:28:19.475Z,10.90
2023-03-26T12:30:58.636Z,10.90
2023-03-26T12:33:29.434Z,11.00
2023-03-26T12:36:00.583Z,10.90
2023-03-26T12:38:33.129Z,10.90
2023-03-26T12:44:42.354Z,10.90
2023-03-26T12:44:50.337Z,10.90
2023-03-26T12:48:00.198Z,10.80
2023-03-26T12:50:09.634Z,10.80
2023-03-26T12:52:58.253Z,10.80
2023-03-26T12:55:44.018Z,10.90
2023-03-26T12:58:34.772Z,10.90
2023-03-26T13:01:11.209Z,10.90
2023-03-26T13:03:56.126Z,10.80
2023-03-26T13:06:31.895Z,10.80
2023-03-26T13:09:33.326Z,10.90
2023-03-26T13:12:14.360Z,10.90
2023-03-26T13:14:59.213Z,11.00
2023-03-26T13:17:35.255Z,11.00
2023-03-26T13:20:12.147Z,11.00
2023-03-26T13:22:49.913Z,11.10
2023-03-26T13:25:31.213Z,11.10
2023-03-26T13:28:13.022Z,11.20
2023-03-26T13:30:49.724Z,11.20
2023-03-26T13:33:33.118Z,11.10
2023-03-26T13:36:21.839Z,11.10
2023-03-26T13:39:04.990Z,11.20
2023-03-26T13:41:45.250Z,11.30
2023-03-26T13:44:23.677Z,11.40
2023-03-26T13:46:54.333Z,11.40
2023-03-26T13:49:37.213Z,11.40
2023-03-26T13:52:11.485Z,11.40
2023-03-26T13:54:47.660Z,11.40
2023-03-26T13:57:24.135Z,11.40
2023-03-26T13:59:58.766Z,11.30
2023-03-26T14:02:38.683Z,11.20
2023-03-26T14:05:13.296Z,11.20
2023-03-26T14:07:46.008Z,11.20
2023-03-26T14:10:18.736Z,11.20
2023-03-26T14:12:53.566Z,11.10
2023-03-26T14:15:27.643Z,11.10
2023-03-26T14:18:06.006Z,11.10
2023-03-26T14:21:04.844Z,11.10
2023-03-26T14:24:01.897Z,11.20
2023-03-26T14:26:47.980Z,11.10
2023-03-26T14:29:31.036Z,11.00
2023-03-26T14:32:12.745Z,11.00
2023-03-26T14:34:52.377Z,10.90
2023-03-26T14:37:51.642Z,11.00
2023-03-26T14:40:31.196Z,11.00
2023-03-26T14:43:23.195Z,11.10
2023-03-26T14:46:07.580Z,11.10
2023-03-26T14:49:06.462Z,11.10
2023-03-26T14:51:56.125Z,11.00
2023-03-26T14:54:27.081Z,10.90
2023-03-26T14:57:24.002Z,10.90
2023-03-26T15:00:28.831Z,10.90
2023-03-26T15:03:34.476Z,10.90
2023-03-26T15:06:53.286Z,10.80
2023-03-26T15:09:55.265Z,10.80
2023-03-26T15:12:37.975Z,10.70
2023-03-26T15:15:45.793Z,10.60
2023-03-26T15:19:17.682Z,10.60
2023-03-26T15:22:26.614Z,10.50
2023-03-26T15:25:41.001Z,10.50
2023-03-26T15:28:38.510Z,10.60
2023-03-26T15:31:21.742Z,10.50
2023-03-26T15:34:20.216Z,10.40
2023-03-26T15:37:22.374Z,10.30
2023-03-26T15:40:12.752Z,10.20
2023-03-26T15:42:55.358Z,10.30
2023-03-26T15:45:33.141Z,10.20
2023-03-26T15:48:55.266Z,10.10
2023-03-26T15:51:47.099Z,10.00
2023-03-26T15:54:25.786Z,10.00
2023-03-26T15:57:10.310Z,10.00
2023-03-26T15:59:50.234Z,10.10
2023-03-26T16:02:28.035Z,10.10
2023-03-26T16:04:57.756Z,10.10
2023-03-26T16:07:47.895Z,10.10
2023-03-26T16:10:40.769Z,10.10
2023-03-26T16:13:41.677Z,10.00
2023-03-26T16:16:23.070Z,9.90
2023-03-26T16:18:58.297Z,9.70
2023-03-26T16:21:54.404Z,9.50
2023-03-26T16:24:27.124Z,9.40
2023-03-26T16:27:21.691Z,9.50
2023-03-26T16:30:30.237Z,9.60
2023-03-26T16:33:05.330Z,9.50
2023-03-26T16:36:01.894Z,9.60
2023-03-26T16:38:50.090Z,9.60
2023-03-26T16:41:19.761Z,9.60
2023-03-26T16:44:02.219Z,9.70
2023-03-26T16:46:42.991Z,9.60
2023-03-26T16:49:24.161Z,9.50
2023-03-26T16:52:07.100Z,9.40
2023-03-26T16:54:45.982Z,9.30
2023-03-26T16:57:26.047Z,9.30
2023-03-26T17:00:27.425Z,9.20
2023-03-26T17:03:08.032Z,9.20
2023-03-26T17:05:38.983Z,9.10
2023-03-26T17:08:16.922Z,9.10
2023-03-26T17:10:56.859Z,9.10
2023-03-26T17:13:33.579Z,9.10
2023-03-26T17:16:13.285Z,9.10
2023-03-26T17:18:53.114Z,9.10
2023-03-26T17:21:28.854Z,9.10
2023-03-26T17:24:24.664Z,9.10
2023-03-26T17:27:23.692Z,9.00
2023-03-26T17:30:05.062Z,9.00
2023-03-26T17:32:59.983Z,8.90
2023-03-26T17:35:44.071Z,8.80
2023-03-26T17:39:00.959Z,8.70
2023-03-26T17:41:52.460Z,8.70
2023-03-26T17:44:45.627Z,8.70
2023-03-26T17:47:38.227Z,8.70
2023-03-26T17:50:14.501Z,8.80
2023-03-26T17:52:52.385Z,8.80
2023-03-26T17:55:23.010Z,8.60
2023-03-26T17:57:54.318Z,8.60
2023-03-26T18:00:24.435Z,8.60
2023-03-26T18:02:57.295Z,8.60
2023-03-26T18:05:30.042Z,8.60
2023-03-26T18:08:33.852Z,8.70
2023-03-26T18:11:20.810Z,8.60
2023-03-26T18:14:17.720Z,8.60
2023-03-26T18:16:49.285Z,8.60
2023-03-26T18:19:19.512Z,8.70
2023-03-26T18:21:50.702Z,8.60
2023-03-26T18:24:22.423Z,8.60
2023-03-26T18:26:55.804Z,8.60
2023-03-26T18:29:26.105Z,8.60
2023-03-26T18:31:57.606Z,8.60
2023-03-26T18:34:27.169Z,8.60
2023-03-26T18:37:16.360Z,8.60
2023-03-26T18:39:57.214Z,8.50
2023-03-26T18:42:27.783Z,8.60
2023-03-26T18:44:59.873Z,8.60
2023-03-26T18:47:30.975Z,8.50
2023-03-26T18:50:00.104Z,8.50
2023-03-26T18:52:30.579Z,8.50
2023-03-26T18:55:00.048Z,8.40
2023-03-26T18:57:30.262Z,8.40
2023-03-26T19:00:10.349Z,8.50
2023-03-26T19:02:39.978Z,8.50
2023-03-26T19:05:13.710Z,8.50
2023-03-26T19:07:45.873Z,8.60
2023-03-26T19:10:18.547Z,8.60
2023-03-26T19:12:56.545Z,8.60
2023-03-26T19:15:25.549Z,8.50
2023-03-26T19:17:59.581Z,8.50
2023-03-26T19:20:30.544Z,8.50
2023-03-26T19:22:58.891Z,8.40
2023-03-26T19:25:29.887Z,8.40
2023-03-26T19:27:59.679Z,8.40
2023-03-26T19:30:31.719Z,8.40
2023-03-26T19:33:12.821Z,8.50
2023-03-26T19:35:43.741Z,8.50
2023-03-26T19:38:23.199Z,8.40
2023-03-26T19:40:53.126Z,8.40
2023-03-26T19:43:23.217Z,8.40
2023-03-26T19:46:00.250Z,8.30
2023-03-26T19:48:45.952Z,8.30
2023-03-26T19:51:21.007Z,8.20
2023-03-26T19:53:52.986Z,8.30
2023-03-26T19:56:22.082Z,8.20
2023-03-26T19:58:51.758Z,8.20
2023-03-26T20:01:22.791Z,8.20
2023-03-26T20:03:53.611Z,8.20
2023-03-26T20:06:30.857Z,8.20
2023-03-26T20:09:06.462Z,8.10
2023-03-26T20:11:37.910Z,8.00
2023-03-26T20:14:13.949Z,8.00
2023-03-26T20:16:43.798Z,8.00
2023-03-26T20:19:14.173Z,8.10
2023-03-26T20:21:42.587Z,8.10
2023-03-26T20:24:14.634Z,8.10
2023-03-26T20:26:42.900Z,8.10
2023-03-26T20:29:12.904Z,8.00
2023-03-26T20:31:42.070Z,8.00
2023-03-26T20:34:17.243Z,8.00
2023-03-26T20:36:46.468Z,8.00
2023-03-26T20:39:14.721Z,8.10
2023-03-26T20:41:46.050Z,7.90
2023-03-26T20:44:17.661Z,7.90
2023-03-26T20:46:46.795Z,7.70
2023-03-26T20:49:15.805Z,7.70
2023-03-26T20:51:45.038Z,7.60
2023-03-26T20:54:21.245Z,7.50
2023-03-26T20:56:49.612Z,7.60
2023-03-26T20:59:21.863Z,7.40
2023-03-26T21:01:51.156Z,7.40
2023-03-26T21:04:19.657Z,7.40
2023-03-26T21:06:48.116Z,7.30
2023-03-26T21:09:18.562Z,7.30
2023-03-26T21:11:53.633Z,7.20
2023-03-26T21:14:26.364Z,7.10
2023-03-26T21:16:54.842Z,7.20
2023-03-26T21:19:23.439Z,7.20
2023-03-26T21:22:02.163Z,7.20
2023-03-26T21:24:41.836Z,7.20
2023-03-26T21:27:19.406Z,7.20
2023-03-26T21:29:49.372Z,7.10
2023-03-26T21:32:17.886Z,6.90
2023-03-26T21:34:55.577Z,6.90
2023-03-26T21:37:27.126Z,6.90
2023-03-26T21:39:55.852Z,6.80
2023-03-26T21:42:26.786Z,6.90
2023-03-26T21:44:57.125Z,6.90
2023-03-26T21:47:25.683Z,6.90
2023-03-26T21:49:54.815Z,6.90
2023-03-26T21:52:23.878Z,6.90
2023-03-26T21:54:52.807Z,6.90
2023-03-26T21:57:39.755Z,6.80
2023-03-26T22:00:15.989Z,6.80
2023-03-26T22:02:55.163Z,6.60
2023-03-26T22:05:31.112Z,6.60
2023-03-26T22:08:02.939Z,6.50
2023-03-26T22:10:31.982Z,6.50
2023-03-26T22:13:00.512Z,6.50
2023-03-26T22:15:31.072Z,6.50
2023-03-26T22:18:02.221Z,6.50
2023-03-26T22:20:30.403Z,6.50
2023-03-26T22:22:58.997Z,6.60
2023-03-26T22:25:27.579Z,6.60
2023-03-26T22:27:57.239Z,6.60
2023-03-26T22:30:25.694Z,6.40
2023-03-26T22:32:55.685Z,6.30
2023-03-26T22:35:24.223Z,6.20
2023-03-26T22:37:52.592Z,6.10
2023-03-26T22:40:29.427Z,6.10
2023-03-26T22:42:57.540Z,6.10
2023-03-26T22:45:26.056Z,6.10
2023-03-26T22:48:03.883Z,6.20
2023-03-26T22:50:32.610Z,6.20
2023-03-26T22:53:01.033Z,6.10
2023-03-26T22:55:30.014Z,6.10
2023-03-26T22:57:58.293Z,6.00
2023-03-26T23:00:26.529Z,6.00
2023-03-26T23:03:00.255Z,6.00
2023-03-26T23:05:28.729Z,6.00
2023-03-26T23:07:57.110Z,6.00
2023-03-26T23:10:25.162Z,6.00
2023-03-26T23:12:53.424Z,6.00
2023-03-26T23:15:22.156Z,6.00
2023-03-26T23:17:54.792Z,6.00
2023-03-26T23:20:24.479Z,6.00
2023-03-26T23:22:52.565Z,6.00
2023-03-26T23:25:21.048Z,6.00
2023-03-26T23:27:50.462Z,6.10
2023-03-26T23:30:19.165Z,6.00
2023-03-26T23:32:47.345Z,5.90
2023-03-26T23:35:15.651Z,5.90
2023-03-26T23:37:45.170Z,5.90
2023-03-26T23:40:14.162Z,6.00
2023-03-26T23:42:42.471Z,6.00
2023-03-26T23:45:12.190Z,5.80
2023-03-26T23:47:42.435Z,5.80
2023-03-26T23:50:12.772Z,5.70
2023-03-26T23:52:40.792Z,5.60
2023-03-26T23:55:10.685Z,5.60
2023-03-26T23:57:38.602Z,5.70
